Time;durP1;ratioP1;P1;durP2;ratioP2;P2;SDS_P1;SDS_P2;PMS_P1;PMS_P2;Temp;Humidity;BMP_temperature;BMP_pressure;BME280_temperature;BME280_humidity;BME280_pressure;Samples;Min_cycle;Max_cycle;Signal;HPM_P1;HPM_P2
2022/03/30 00:01:32;;;;;;;23.70;12.60;;;;;;;8.77;68.44;100710.63;5059526;28;20053;-50
2022/03/30 00:04:00;;;;;;;27.10;14.73;;;;;;;8.68;68.39;100712.16;5057198;28;20110;-52
2022/03/30 00:06:28;;;;;;;30.05;14.20;;;;;;;8.61;69.42;100706.13;5056379;28;20408;-49
2022/03/30 00:08:55;;;;;;;28.23;14.45;;;;;;;8.62;69.07;100708.59;5043212;28;20049;-48
2022/03/30 00:11:23;;;;;;;22.80;13.48;;;;;;;8.60;68.78;100699.88;5055311;28;20055;-47
2022/03/30 00:13:51;;;;;;;25.10;13.25;;;;;;;8.48;69.14;100696.50;5055636;28;20430;-46
2022/03/30 00:16:19;;;;;;;26.17;13.68;;;;;;;8.46;69.77;100693.22;5037297;28;20041;-49
2022/03/30 00:18:47;;;;;;;24.15;14.10;;;;;;;8.48;69.28;100691.88;5017973;28;20069;-49
2022/03/30 00:21:15;;;;;;;29.27;14.15;;;;;;;8.40;70.08;100697.81;5036406;28;20033;-47
2022/03/30 00:23:42;;;;;;;24.90;14.55;;;;;;;8.26;70.70;100699.25;5035752;28;20041;-49
2022/03/30 00:26:11;;;;;;;30.75;14.75;;;;;;;8.04;70.97;100697.38;5035699;28;20056;-47
2022/03/30 00:28:38;;;;;;;31.70;15.02;;;;;;;7.96;71.61;100700.56;5036309;28;20049;-49
2022/03/30 00:31:06;;;;;;;27.27;14.45;;;;;;;7.96;72.27;100706.00;5044330;28;20124;-48
2022/03/30 00:33:34;;;;;;;28.08;14.90;;;;;;;7.92;71.76;100699.41;5055420;28;20470;-49
2022/03/30 00:36:02;;;;;;;28.20;13.43;;;;;;;7.91;71.96;100697.75;5054127;28;20124;-47
2022/03/30 00:38:29;;;;;;;26.15;13.98;;;;;;;7.92;71.96;100694.00;5037460;28;20048;-46
2022/03/30 00:40:57;;;;;;;29.67;14.10;;;;;;;7.97;72.11;100688.63;5017491;28;20134;-48
2022/03/30 00:43:25;;;;;;;29.73;14.48;;;;;;;7.90;71.59;100688.81;5034109;28;20095;-49
2022/03/30 00:45:52;;;;;;;26.30;14.15;;;;;;;7.97;71.71;100690.53;5034733;28;20155;-48
2022/03/30 00:48:21;;;;;;;28.90;14.80;;;;;;;7.94;71.62;100686.44;5037189;28;20345;-47
2022/03/30 00:50:49;;;;;;;28.35;14.57;;;;;;;7.92;71.92;100680.44;5034895;28;20052;-49
2022/03/30 00:53:16;;;;;;;33.08;15.20;;;;;;;7.78;72.53;100687.31;5033801;28;20049;-48
2022/03/30 00:55:45;;;;;;;28.65;15.35;;;;;;;7.67;72.83;100679.06;5034928;28;20496;-52
2022/03/30 00:58:14;;;;;;;24.92;14.25;;;;;;;7.58;72.77;100693.31;5040631;28;20037;-47
2022/03/30 01:00:42;;;;;;;25.25;12.95;;;;;;;7.66;73.20;100677.41;5054731;28;20045;-49
2022/03/30 01:03:10;;;;;;;30.50;14.18;;;;;;;7.72;72.28;100677.47;5054400;28;20053;-51
2022/03/30 01:05:39;;;;;;;31.25;15.63;;;;;;;7.68;72.23;100683.41;5054457;28;20040;-48
2022/03/30 01:08:06;;;;;;;31.67;14.73;;;;;;;7.63;72.46;100683.34;5046578;28;20044;-49
2022/03/30 01:10:34;;;;;;;29.90;15.07;;;;;;;7.68;72.40;100671.72;5051521;28;20032;-48
2022/03/30 01:13:03;;;;;;;28.65;14.93;;;;;;;7.65;72.45;100678.47;5053068;28;20041;-46
2022/03/30 01:15:32;;;;;;;26.70;15.63;;;;;;;7.58;72.59;100680.56;5054278;28;20102;-49
2022/03/30 01:18:02;;;;;;;29.45;14.75;;;;;;;7.51;73.51;100682.63;5054383;28;20373;-47
2022/03/30 01:20:29;;;;;;;25.50;15.63;;;;;;;7.37;73.37;100675.94;5034563;28;20116;-47
2022/03/30 01:23:02;;;;;;;31.48;16.13;;;;;;;7.14;74.45;100671.53;5033437;28;20136;-49
2022/03/30 01:25:31;;;;;;;28.13;16.10;;;;;;;7.14;75.15;100672.34;5034619;28;20045;-47
2022/03/30 01:28:00;;;;;;;31.27;15.43;;;;;;;6.98;75.39;100665.09;5032898;28;20045;-46
2022/03/30 01:33:13;;;;;;;32.63;16.13;;;;;;;6.91;76.37;100669.84;5035128;28;20060;-44
2022/03/30 01:35:41;;;;;;;27.80;14.50;;;;;;;6.94;75.77;100662.03;5034779;28;20041;-44
2022/03/30 01:38:09;;;;;;;29.65;15.15;;;;;;;6.89;76.50;100670.09;5050109;28;20049;-44
2022/03/30 01:40:38;;;;;;;27.50;15.57;;;;;;;6.97;75.92;100660.72;5034311;28;20037;-45
2022/03/30 01:43:06;;;;;;;27.15;15.02;;;;;;;6.88;76.13;100656.78;5033928;28;20525;-45
2022/03/30 01:45:34;;;;;;;27.50;15.30;;;;;;;6.97;75.58;100649.88;5034741;28;20112;-44
2022/03/30 01:48:02;;;;;;;28.77;13.77;;;;;;;7.05;75.14;100652.19;5046307;28;20044;-44
2022/03/30 01:50:32;;;;;;;26.83;15.43;;;;;;;6.95;75.35;100641.19;5053656;28;20037;-44
2022/03/30 01:53:00;;;;;;;29.30;15.20;;;;;;;6.95;76.00;100649.31;5053780;28;20037;-44
2022/03/30 01:55:27;;;;;;;29.60;15.95;;;;;;;7.00;75.36;100649.41;5052709;28;20049;-45
2022/03/30 01:57:55;;;;;;;30.02;16.50;;;;;;;6.97;75.60;100644.47;5035172;28;20116;-45
2022/03/30 02:00:24;;;;;;;29.33;16.02;;;;;;;6.96;74.87;100653.69;5033727;28;20048;-45
2022/03/30 02:02:52;;;;;;;26.85;14.45;;;;;;;6.80;75.68;100648.00;5033386;28;20171;-44
2022/03/30 02:05:20;;;;;;;26.45;15.05;;;;;;;6.81;75.37;100641.53;5033517;28;20049;-43
2022/03/30 02:07:48;;;;;;;31.33;16.33;;;;;;;6.72;76.14;100636.78;5033511;28;20042;-44
2022/03/30 02:10:17;;;;;;;30.02;16.00;;;;;;;6.64;76.13;100631.78;5033832;28;20416;-44
2022/03/30 02:12:44;;;;;;;30.23;15.63;;;;;;;6.58;77.06;100636.28;5032346;28;20045;-43
2022/03/30 02:15:13;;;;;;;32.60;15.27;;;;;;;6.59;76.73;100633.34;5034226;28;20061;-44
2022/03/30 02:17:41;;;;;;;28.10;15.88;;;;;;;6.63;76.06;100630.16;5048727;28;20045;-45
2022/03/30 02:20:11;;;;;;;31.42;16.27;;;;;;;6.57;76.65;100624.66;5052224;28;20051;-45
2022/03/30 02:22:40;;;;;;;28.38;14.45;;;;;;;6.48;77.46;100623.41;5050500;28;20049;-44
2022/03/30 02:25:08;;;;;;;31.20;15.98;;;;;;;6.49;77.19;100614.22;5048726;28;20068;-44
2022/03/30 02:27:37;;;;;;;29.40;14.77;;;;;;;6.44;78.00;100602.50;5053366;28;20049;-46
2022/03/30 02:30:06;;;;;;;26.75;15.35;;;;;;;6.56;76.86;100605.94;5053446;28;20049;-46
2022/03/30 02:32:34;;;;;;;29.55;15.00;;;;;;;6.51;76.92;100609.38;5053427;28;20431;-49
2022/03/30 02:35:02;;;;;;;30.48;16.25;;;;;;;6.46;77.50;100600.38;5043910;28;20045;-47
2022/03/30 02:37:30;;;;;;;23.67;14.38;;;;;;;6.44;77.41;100592.50;5033045;28;20037;-47
2022/03/30 02:39:57;;;;;;;30.67;13.75;;;;;;;6.38;77.43;100594.31;5031781;28;20045;-47
2022/03/30 02:42:25;;;;;;;29.77;16.02;;;;;;;6.43;77.46;100588.16;5031845;28;20084;-49
2022/03/30 02:44:53;;;;;;;27.75;15.13;;;;;;;6.47;77.48;100592.03;5033562;28;20048;-49
2022/03/30 02:48:17;;;;;;;27.95;15.88;;;;;;;6.39;77.74;100587.81;5051079;28;20522;-48
2022/03/30 02:50:09;;;;;;;31.35;16.23;;;;;;;6.38;77.88;100583.47;5051572;28;20041;-51
2022/03/30 02:52:36;;;;;;;27.65;15.60;;;;;;;6.43;77.95;100581.94;5053784;28;20056;-49
2022/03/30 02:55:04;;;;;;;31.02;15.95;;;;;;;6.44;77.51;100578.97;5053954;28;20099;-49
2022/03/30 02:57:32;;;;;;;32.15;16.00;;;;;;;6.40;77.46;100580.53;5043752;28;20432;-47
2022/03/30 03:00:00;;;;;;;27.48;15.18;;;;;;;6.25;78.81;100591.09;5053466;28;20399;-47
2022/03/30 03:02:27;;;;;;;29.05;14.82;;;;;;;6.32;78.97;100579.03;5057031;28;20057;-48
2022/03/30 03:04:55;;;;;;;28.70;15.15;;;;;;;6.38;78.38;100582.66;5057077;28;20041;-47
2022/03/30 03:07:22;;;;;;;25.88;14.27;;;;;;;6.32;78.59;100579.03;5055060;28;20049;-46
2022/03/30 03:09:50;;;;;;;26.75;15.68;;;;;;;6.31;78.50;100576.59;5055584;28;20048;-51
2022/03/30 03:12:18;;;;;;;24.27;13.80;;;;;;;6.26;78.89;100571.91;5055507;28;20427;-49
2022/03/30 03:14:46;;;;;;;29.48;15.90;;;;;;;6.22;78.78;100567.25;5056676;28;20079;-46
2022/03/30 03:17:14;;;;;;;30.35;14.60;;;;;;;6.18;78.84;100569.59;5057852;28;20057;-48
2022/03/30 03:19:42;;;;;;;28.40;14.73;;;;;;;6.06;79.72;100563.44;5055622;28;20048;-46
2022/03/30 03:22:10;;;;;;;28.70;16.27;;;;;;;6.14;79.84;100566.59;5057307;28;20071;-46
2022/03/30 03:24:38;;;;;;;30.30;16.33;;;;;;;6.23;79.29;100558.88;5056282;28;20037;-46
2022/03/30 03:27:06;;;;;;;26.25;15.57;;;;;;;6.37;79.05;100565.63;5040957;28;20041;-48
2022/03/30 03:29:33;;;;;;;28.48;14.80;;;;;;;6.39;78.47;100558.03;5036567;28;20419;-47
2022/03/30 03:32:01;;;;;;;29.95;16.08;;;;;;;6.39;78.08;100558.03;5040177;28;20037;-48
2022/03/30 03:34:29;;;;;;;29.45;15.77;;;;;;;6.30;78.55;100554.13;5037551;28;20048;-49
2022/03/30 03:36:56;;;;;;;29.08;15.13;;;;;;;6.28;78.81;100556.28;5034703;28;20049;-46
2022/03/30 03:39:24;;;;;;;25.90;15.25;;;;;;;6.40;78.09;100559.69;5035050;28;20051;-49
2022/03/30 03:41:52;;;;;;;31.63;16.55;;;;;;;6.28;78.29;100553.56;5036149;28;20065;-49
2022/03/30 03:44:19;;;;;;;28.60;15.82;;;;;;;6.19;78.73;100552.31;5037218;28;20061;-48
2022/03/30 03:46:47;;;;;;;32.78;16.15;;;;;;;6.16;78.55;100552.81;5049416;28;20045;-47
2022/03/30 03:49:15;;;;;;;33.00;16.23;;;;;;;6.08;78.90;100561.31;5056185;28;20041;-46
2022/03/30 03:51:42;;;;;;;26.55;13.88;;;;;;;6.07;79.26;100548.88;5056103;28;20052;-47
2022/03/30 03:54:10;;;;;;;29.63;14.85;;;;;;;6.10;78.89;100553.78;5050065;28;20034;-48
2022/03/30 03:56:38;;;;;;;30.83;15.75;;;;;;;6.10;79.00;100542.97;5053038;28;20055;-49
2022/03/30 03:59:06;;;;;;;28.73;15.82;;;;;;;6.04;78.93;100546.63;5054903;28;20045;-48
2022/03/30 04:01:34;;;;;;;27.73;14.80;;;;;;;5.87;79.66;100544.72;5055576;28;20045;-49
2022/03/30 04:04:02;;;;;;;27.92;15.55;;;;;;;5.84;80.38;100545.19;5054502;28;20495;-47
2022/03/30 04:06:31;;;;;;;25.05;14.98;;;;;;;5.92;80.42;100541.28;5034438;28;20068;-48
2022/03/30 04:08:59;;;;;;;25.10;14.82;;;;;;;5.80;80.52;100538.66;5035750;28;20041;-49
2022/03/30 04:11:27;;;;;;;30.88;16.10;;;;;;;5.72;80.26;100542.59;5035824;28;20038;-48
2022/03/30 04:13:55;;;;;;;26.13;14.93;;;;;;;5.64;81.17;100539.44;5034960;28;20045;-47
2022/03/30 04:16:22;;;;;;;26.92;16.02;;;;;;;5.50;81.21;100545.13;5053010;28;20041;-47
2022/03/30 04:18:50;;;;;;;28.98;15.25;;;;;;;5.49;81.90;100532.69;5054514;28;20049;-48
2022/03/30 04:21:18;;;;;;;29.92;15.32;;;;;;;5.40;82.04;100544.94;5038577;28;20053;-47
2022/03/30 04:23:45;;;;;;;31.98;16.60;;;;;;;5.44;82.23;100538.00;5035634;28;20037;-48
2022/03/30 04:26:13;;;;;;;28.55;16.27;;;;;;;5.45;81.68;100547.72;5055445;28;20077;-45
2022/03/30 04:28:41;;;;;;;25.60;15.45;;;;;;;5.40;82.17;100536.00;5054266;28;20055;-48
2022/03/30 04:31:11;;;;;;;26.00;14.98;;;;;;;5.35;82.23;100552.94;5055324;28;20037;-49
2022/03/30 04:33:39;;;;;;;26.20;13.98;;;;;;;5.38;82.48;100541.66;5050001;28;20067;-48
2022/03/30 04:36:07;;;;;;;27.50;15.40;;;;;;;5.43;82.82;100544.44;5023570;28;20054;-44
2022/03/30 04:38:35;;;;;;;30.08;16.10;;;;;;;5.48;81.64;100535.63;5039329;28;20043;-48
2022/03/30 04:41:03;;;;;;;30.55;15.90;;;;;;;5.43;81.91;100539.03;5054808;28;20408;-47
2022/03/30 04:43:31;;;;;;;28.10;15.57;;;;;;;5.39;82.36;100537.06;5053260;28;20041;-48
2022/03/30 04:45:58;;;;;;;31.15;15.85;;;;;;;5.34;82.27;100530.50;5053140;28;20431;-47
2022/03/30 04:48:26;;;;;;;28.20;16.33;;;;;;;5.16;83.04;100537.97;5055042;28;20064;-46
2022/03/30 04:50:54;;;;;;;27.30;15.50;;;;;;;5.16;83.68;100538.78;5054963;28;20041;-46
2022/03/30 04:53:21;;;;;;;28.27;15.50;;;;;;;5.19;83.42;100543.69;5053516;28;20045;-48
2022/03/30 04:55:49;;;;;;;30.05;16.77;;;;;;;5.22;82.81;100542.41;5050959;28;20060;-49
2022/03/30 04:58:16;;;;;;;26.67;16.02;;;;;;;5.22;83.05;100550.50;5052959;28;20041;-46
2022/03/30 05:00:44;;;;;;;30.88;15.90;;;;;;;5.12;82.94;100543.84;5053616;28;20045;-48
2022/03/30 05:03:12;;;;;;;29.08;16.17;;;;;;;5.12;83.23;100543.84;5054597;28;20080;-49
2022/03/30 05:05:40;;;;;;;28.08;15.77;;;;;;;5.13;83.09;100545.47;5044836;28;20033;-48
2022/03/30 05:08:07;;;;;;;29.60;16.60;;;;;;;5.22;82.63;100547.78;5049257;28;20040;-47
2022/03/30 05:10:36;;;;;;;27.55;15.52;;;;;;;5.16;82.44;100554.16;5052856;28;20041;-47
2022/03/30 05:13:04;;;;;;;28.00;15.35;;;;;;;5.02;83.46;100546.31;5054145;28;20509;-47
2022/03/30 05:15:32;;;;;;;28.20;15.55;;;;;;;4.96;83.25;100544.59;5049268;28;20411;-50
2022/03/30 05:18:00;;;;;;;25.83;14.50;;;;;;;4.94;84.60;100541.31;5041071;28;20140;-48
2022/03/30 05:20:28;;;;;;;25.98;15.60;;;;;;;5.00;84.23;100534.13;5054294;28;20051;-48
2022/03/30 05:22:56;;;;;;;28.70;14.63;;;;;;;4.95;83.98;100526.72;5052608;28;20116;-46
2022/03/30 05:25:23;;;;;;;29.65;14.60;;;;;;;4.98;84.29;100531.69;5054124;28;20518;-49
2022/03/30 05:27:51;;;;;;;27.38;14.25;;;;;;;4.97;84.40;100532.72;5035229;28;20053;-48
2022/03/30 05:30:19;;;;;;;26.10;14.05;;;;;;;5.00;83.80;100526.84;5034227;28;20044;-49
2022/03/30 05:32:48;;;;;;;25.27;15.15;;;;;;;4.92;84.05;100529.91;5044729;28;20149;-49
2022/03/30 05:35:16;;;;;;;27.58;15.18;;;;;;;4.79;85.02;100528.31;5054114;28;20103;-47
2022/03/30 05:37:50;;;;;;;24.63;15.20;;;;;;;4.87;85.09;100524.41;5038854;28;20128;-49
2022/03/30 05:40:18;;;;;;;28.27;16.60;;;;;;;4.82;84.54;100521.59;5033832;28;20121;-48
2022/03/30 05:42:46;;;;;;;27.00;15.60;;;;;;;4.80;84.76;100519.13;5035358;28;20046;-53
2022/03/30 05:45:13;;;;;;;29.45;16.15;;;;;;;4.83;84.76;100523.22;5033873;28;20396;-45
2022/03/30 05:47:42;;;;;;;31.73;16.08;;;;;;;4.71;85.36;100520.53;5042961;28;20400;-50
2022/03/30 05:50:10;;;;;;;33.55;16.77;;;;;;;4.72;85.49;100518.69;5053686;28;20041;-48
2022/03/30 05:52:38;;;;;;;24.50;15.23;;;;;;;4.67;85.44;100527.50;5053530;28;20053;-49
2022/03/30 05:55:08;;;;;;;30.05;16.23;;;;;;;4.72;85.71;100526.78;5051882;28;20037;-48
2022/03/30 05:57:36;;;;;;;32.03;16.52;;;;;;;4.73;85.96;100518.44;5048813;28;20439;-47
2022/03/30 06:00:07;;;;;;;32.47;16.65;;;;;;;4.72;85.83;100519.50;4335645;28;10000936;-49
2022/03/30 06:02:40;;;;;;;30.00;17.20;;;;;;;4.68;85.91;100521.84;5029930;28;20076;-49
2022/03/30 06:05:08;;;;;;;27.38;16.50;;;;;;;4.75;86.60;100520.91;5030338;28;20046;-50
2022/03/30 06:07:36;;;;;;;30.10;16.60;;;;;;;4.77;85.45;100525.00;5031327;28;20045;-47
2022/03/30 06:10:04;;;;;;;23.83;14.75;;;;;;;4.90;85.79;100523.94;5050113;28;20049;-47
2022/03/30 06:12:32;;;;;;;26.85;16.00;;;;;;;4.98;84.63;100520.03;5039098;28;20668;-49
2022/03/30 06:14:59;;;;;;;32.17;16.60;;;;;;;4.91;85.08;100523.69;5029641;28;20038;-48
2022/03/30 06:17:33;;;;;;;26.25;15.50;;;;;;;4.92;85.42;100527.22;5026495;28;20495;-50
2022/03/30 06:20:03;;;;;;;35.50;17.17;;;;;;;5.04;85.30;100527.19;5047150;28;20461;-49
2022/03/30 06:22:31;;;;;;;32.08;16.42;;;;;;;4.99;84.60;100536.00;5049958;28;20079;-49
2022/03/30 06:25:00;;;;;;;32.05;16.23;;;;;;;5.00;85.32;100532.22;5051125;28;20101;-48
2022/03/30 06:27:27;;;;;;;31.02;16.73;;;;;;;5.08;84.87;100523.78;5048628;28;20033;-49
2022/03/30 06:29:55;;;;;;;29.60;16.88;;;;;;;5.22;84.03;100512.69;5052321;28;20086;-50
2022/03/30 06:32:22;;;;;;;29.52;16.08;;;;;;;5.24;84.27;100514.13;5047091;28;20048;-50
2022/03/30 06:34:50;;;;;;;29.65;16.63;;;;;;;5.26;83.69;100521.97;5033127;28;20044;-50
2022/03/30 06:37:19;;;;;;;33.08;18.25;;;;;;;5.23;83.97;100528.66;5047418;28;20581;-51
2022/03/30 06:39:48;;;;;;;27.15;16.67;;;;;;;5.19;84.39;100532.91;5054306;28;20128;-45
2022/03/30 06:42:17;;;;;;;31.85;16.95;;;;;;;5.17;84.99;100531.50;5050026;28;20049;-46
2022/03/30 06:44:45;;;;;;;30.55;16.65;;;;;;;5.16;84.66;100537.97;5034460;28;20073;-48
2022/03/30 06:47:12;;;;;;;29.10;16.58;;;;;;;5.15;84.56;100530.91;5041634;28;20380;-49
2022/03/30 06:49:40;;;;;;;30.40;16.45;;;;;;;5.19;84.98;100537.47;5052802;28;20090;-46
2022/03/30 06:52:09;;;;;;;29.38;16.55;;;;;;;5.24;84.98;100534.88;5053029;28;20495;-47
2022/03/30 06:54:38;;;;;;;33.25;16.88;;;;;;;5.27;84.94;100535.22;5029981;28;20029;-49
2022/03/30 06:57:06;;;;;;;32.70;17.45;;;;;;;5.33;84.88;100533.44;5036630;28;20124;-50
2022/03/30 06:59:33;;;;;;;36.65;17.20;;;;;;;5.36;84.48;100535.66;5052770;28;20045;-49
2022/03/30 07:02:01;;;;;;;30.05;16.55;;;;;;;5.37;84.58;100540.00;5052710;28;20386;-50
2022/03/30 07:04:29;;;;;;;33.25;17.35;;;;;;;5.39;83.86;100532.50;5051414;28;20505;-50
2022/03/30 07:12:30;;;;;;;32.53;17.10;;;;;;;5.48;84.48;100522.09;5035967;28;20044;-46
2022/03/30 07:14:59;;;;;;;28.38;17.15;;;;;;;5.51;83.82;100529.75;5045629;28;20047;-46
2022/03/30 07:17:27;;;;;;;29.15;17.10;;;;;;;5.55;84.01;100528.19;5046703;28;20048;-50
2022/03/30 07:19:55;;;;;;;32.38;16.42;;;;;;;5.50;83.47;100528.91;5050283;28;20049;-44
2022/03/30 07:22:23;;;;;;;32.42;16.77;;;;;;;5.49;84.31;100527.28;5049975;28;20039;-44
2022/03/30 07:24:50;;;;;;;31.30;15.98;;;;;;;5.53;83.85;100517.63;5052810;28;20131;-45
2022/03/30 07:27:18;;;;;;;32.95;16.75;;;;;;;5.56;83.74;100521.72;5043146;28;20041;-49
2022/03/30 07:29:48;;;;;;;35.25;15.85;;;;;;;5.61;83.28;100523.72;5032374;28;20052;-49
2022/03/30 07:32:16;;;;;;;27.55;14.73;;;;;;;5.67;83.40;100523.53;5034932;28;20048;-51
2022/03/30 07:34:43;;;;;;;28.90;15.75;;;;;;;5.87;82.44;100517.69;5050281;28;20128;-50
2022/03/30 07:37:11;;;;;;;27.58;15.25;;;;;;;5.97;82.08;100528.69;5041210;28;20048;-49
2022/03/30 07:39:38;;;;;;;29.02;14.68;;;;;;;5.95;81.55;100525.41;5033141;28;20056;-49
2022/03/30 07:42:06;;;;;;;26.17;13.50;;;;;;;5.95;81.90;100520.00;5034974;28;20454;-51
2022/03/30 07:44:34;;;;;;;23.60;13.52;;;;;;;5.94;81.58;100523.78;5036161;28;20048;-49
2022/03/30 07:47:04;;;;;;;30.88;14.93;;;;;;;6.00;81.16;100522.00;5036809;28;20044;-49
2022/03/30 07:49:32;;;;;;;22.27;12.93;;;;;;;6.10;81.34;100524.03;5037248;28;20041;-49
2022/03/30 07:52:03;;;;;;;24.92;12.90;;;;;;;6.16;80.93;100520.38;5035953;28;20045;-51
2022/03/30 07:54:31;;;;;;;30.52;12.98;;;;;;;6.21;80.23;100514.22;5036088;28;20071;-47
2022/03/30 07:56:58;;;;;;;26.15;13.60;;;;;;;6.28;79.54;100512.16;5034826;28;20393;-49
2022/03/30 07:59:26;;;;;;;25.70;12.85;;;;;;;6.32;78.85;100516.81;5036180;28;20372;-51
2022/03/30 08:01:54;;;;;;;28.25;12.18;;;;;;;6.35;79.04;100512.78;5035583;28;20050;-49
2022/03/30 08:04:22;;;;;;;27.42;13.73;;;;;;;6.38;79.00;100512.31;5034788;28;20037;-50
2022/03/30 08:06:50;;;;;;;34.28;13.70;;;;;;;6.44;79.07;100511.31;5035445;28;20045;-48
2022/03/30 08:09:18;;;;;;;28.00;12.65;;;;;;;6.47;78.62;100510.81;5034189;28;20045;-47
2022/03/30 08:11:46;;;;;;;26.00;14.30;;;;;;;6.50;78.94;100512.22;5034674;28;20045;-47
2022/03/30 08:14:14;;;;;;;28.33;14.57;;;;;;;6.60;78.46;100513.16;5044294;28;20051;-47
2022/03/30 08:16:41;;;;;;;28.45;14.77;;;;;;;6.55;78.91;100512.28;5053336;28;20044;-48
2022/03/30 08:19:09;;;;;;;26.52;14.05;;;;;;;6.63;79.45;100519.16;5055337;28;20124;-50
2022/03/30 08:24:23;;;;;;;31.00;15.77;;;;;;;6.81;78.66;100519.69;5039252;28;20128;-50
2022/03/30 08:26:51;;;;;;;29.20;14.60;;;;;;;6.81;79.20;100514.28;5055259;28;20043;-48
2022/03/30 08:29:18;;;;;;;27.65;14.02;;;;;;;6.86;79.13;100516.22;5055311;28;20377;-49
2022/03/30 08:31:52;;;;;;;27.58;15.32;;;;;;;6.85;79.05;100519.19;5054265;28;20041;-51
2022/03/30 08:34:20;;;;;;;26.60;14.80;;;;;;;6.86;79.13;100515.41;5021392;28;20045;-47
2022/03/30 08:36:48;;;;;;;28.95;15.00;;;;;;;6.91;79.03;100515.47;5034431;28;20076;-48
2022/03/30 08:39:15;;;;;;;27.35;15.25;;;;;;;6.87;78.33;100509.72;5035406;28;20136;-52
2022/03/30 08:41:45;;;;;;;29.50;15.38;;;;;;;6.91;78.48;100508.16;5035623;28;20051;-46
2022/03/30 08:44:14;;;;;;;30.52;15.10;;;;;;;6.89;78.35;100512.19;5051343;28;20033;-46
2022/03/30 08:46:45;;;;;;;29.60;15.30;;;;;;;6.93;78.54;100513.34;5051675;28;20411;-51
2022/03/30 08:49:14;;;;;;;28.73;14.18;;;;;;;7.00;78.50;100513.97;5054483;28;20131;-52
2022/03/30 08:51:47;;;;;;;31.35;15.10;;;;;;;7.08;77.89;100510.00;5052739;28;20080;-51
2022/03/30 08:54:16;;;;;;;27.65;14.93;;;;;;;7.15;78.11;100511.44;5053021;28;20036;-50
2022/03/30 08:56:45;;;;;;;28.55;15.90;;;;;;;7.17;77.29;100503.06;5033566;28;20145;-50
2022/03/30 08:59:17;;;;;;;30.02;14.52;;;;;;;7.18;77.96;100510.94;5052830;28;20048;-50
2022/03/30 09:01:45;;;;;;;25.05;14.45;;;;;;;7.24;77.74;100509.94;5054725;28;20045;-50
2022/03/30 09:04:14;;;;;;;28.52;13.82;;;;;;;7.32;76.99;100505.94;5053040;28;20053;-49
2022/03/30 09:06:44;;;;;;;24.10;13.23;;;;;;;7.40;75.70;100504.66;5052824;28;20037;-49
2022/03/30 09:09:14;;;;;;;23.30;13.65;;;;;;;7.37;76.63;100502.47;5053231;28;20076;-49
2022/03/30 09:11:41;;;;;;;23.20;13.18;;;;;;;7.46;75.82;100507.19;5053224;28;20087;-49
2022/03/30 09:14:10;;;;;;;20.17;12.48;;;;;;;7.44;75.70;100503.09;5053373;28;20120;-49
2022/03/30 09:16:45;;;;;;;24.92;14.35;;;;;;;7.53;76.03;100507.00;5035135;28;20033;-49
2022/03/30 09:19:14;;;;;;;23.45;12.57;;;;;;;7.54;75.57;100497.78;5034488;28;20107;-50
2022/03/30 09:21:47;;;;;;;23.75;11.55;;;;;;;7.56;74.50;100503.75;5033334;28;20547;-48
2022/03/30 09:24:17;;;;;;;28.48;13.05;;;;;;;7.61;75.30;100498.38;5034492;28;20045;-48
2022/03/30 09:26:47;;;;;;;27.35;13.27;;;;;;;7.67;74.42;100494.66;5052217;28;20430;-48
2022/03/30 09:29:15;;;;;;;24.40;14.05;;;;;;;7.74;74.36;100496.34;5052695;28;20048;-48
2022/03/30 09:31:43;;;;;;;22.02;12.98;;;;;;;7.72;74.20;100493.06;5034856;28;20041;-49
2022/03/30 09:34:11;;;;;;;21.77;12.75;;;;;;;7.73;73.38;100489.28;5033117;28;20500;-49
2022/03/30 09:36:40;;;;;;;24.90;13.98;;;;;;;7.72;74.23;100482.19;5033195;28;20080;-49
2022/03/30 09:39:26;;;;;;;26.00;13.65;;;;;;;7.83;75.13;100478.53;5035700;28;20037;-49
2022/03/30 09:41:56;;;;;;;24.55;12.45;;;;;;;7.94;73.28;100474.81;5039457;28;20041;-48
2022/03/30 09:44:24;;;;;;;24.50;14.68;;;;;;;7.97;72.82;100479.72;5035765;28;20038;-46
2022/03/30 09:47:07;;;;;;;27.50;14.07;;;;;;;7.97;73.24;100473.50;5037451;28;20033;-48
2022/03/30 09:49:38;;;;;;;24.75;13.80;;;;;;;7.99;72.64;100474.88;5035016;28;20040;-47
2022/03/30 09:52:20;;;;;;;24.75;13.82;;;;;;;8.02;71.34;100466.19;5040426;28;20055;-46
2022/03/30 09:54:50;;;;;;;24.52;12.63;;;;;;;8.06;72.16;100461.09;5052296;28;20491;-48
2022/03/30 09:57:21;;;;;;;25.05;11.82;;;;;;;8.11;72.15;100467.34;5022506;28;20037;-50
2022/03/30 10:00:00;;;;;;;21.15;10.20;;;;;;;8.11;72.05;100464.63;5034112;28;20145;-48
2022/03/30 10:02:37;;;;;;;24.38;13.25;;;;;;;8.15;72.24;100453.25;5036258;28;20066;-48
2022/03/30 10:05:07;;;;;;;24.05;12.63;;;;;;;8.21;72.29;100457.66;5053916;28;20102;-51
2022/03/30 10:07:35;;;;;;;23.73;13.27;;;;;;;8.26;72.02;100460.41;5044053;28;20568;-47
2022/03/30 10:10:05;;;;;;;22.75;13.52;;;;;;;8.29;71.37;100462.56;5034397;28;20037;-49
2022/03/30 10:12:34;;;;;;;23.88;13.48;;;;;;;8.30;71.89;100461.53;5033666;28;20052;-48
2022/03/30 10:15:06;;;;;;;23.98;13.02;;;;;;;8.38;71.73;100458.31;5033654;28;20506;-48
2022/03/30 10:17:34;;;;;;;24.13;13.63;;;;;;;8.37;70.67;100455.84;5034266;28;20065;-49
2022/03/30 10:20:02;;;;;;;23.98;13.25;;;;;;;8.33;71.53;100450.13;5033476;28;20053;-50
2022/03/30 10:22:45;;;;;;;21.20;12.65;;;;;;;8.35;71.62;100450.69;5051977;28;20037;-49
2022/03/30 10:25:43;;;;;;;21.38;12.48;;;;;;;8.37;70.89;100440.38;5053008;28;20479;-45
2022/03/30 10:28:13;;;;;;;23.38;12.65;;;;;;;8.43;70.63;100447.50;5034980;28;20069;-49
2022/03/30 10:30:43;;;;;;;21.70;13.27;;;;;;;8.50;70.85;100439.94;5033293;28;20412;-49
2022/03/30 10:33:12;;;;;;;19.20;11.57;;;;;;;8.57;70.21;100444.31;5034524;28;20052;-48
2022/03/30 10:35:48;;;;;;;23.00;11.57;;;;;;;8.60;70.53;100435.63;5052007;28;20057;-51
2022/03/30 10:38:17;;;;;;;23.45;11.88;;;;;;;8.65;70.10;100436.47;5035969;28;20087;-50
2022/03/30 10:40:45;;;;;;;21.17;12.90;;;;;;;8.70;69.12;100441.13;5049947;28;20522;-50
2022/03/30 10:43:25;;;;;;;29.25;10.93;;;;;;;8.77;68.79;100435.44;5053139;28;20048;-52
2022/03/30 10:46:02;;;;;;;18.95;11.80;;;;;;;8.71;69.44;100431.91;5034594;28;20480;-48
2022/03/30 10:48:30;;;;;;;23.52;13.25;;;;;;;8.75;69.13;100424.84;5032893;28;20111;-49
2022/03/30 10:51:00;;;;;;;21.10;12.55;;;;;;;8.73;68.89;100427.84;5033980;28;20124;-49
2022/03/30 10:53:30;;;;;;;20.63;11.95;;;;;;;8.79;68.92;100425.13;5036725;28;20037;-48
2022/03/30 10:56:12;;;;;;;28.02;12.30;;;;;;;8.87;69.10;100411.84;5035478;28;20041;-50
2022/03/30 10:58:49;;;;;;;23.42;11.90;;;;;;;8.91;68.76;100409.41;5047515;28;20103;-50
2022/03/30 11:01:22;;;;;;;25.38;12.13;;;;;;;8.99;68.96;100413.50;5032940;28;20424;-49
2022/03/30 11:04:02;;;;;;;22.00;12.35;;;;;;;9.06;67.90;100411.34;5035477;28;20087;-51
2022/03/30 11:06:35;;;;;;;29.10;12.13;;;;;;;9.04;67.28;100405.38;5053121;28;20076;-54
2022/03/30 11:09:08;;;;;;;24.02;12.75;;;;;;;9.03;67.62;100398.31;5052006;28;20441;-49
2022/03/30 11:11:45;;;;;;;20.27;11.93;;;;;;;9.05;67.15;100396.16;5050117;28;20041;-48
2022/03/30 11:14:34;;;;;;;21.45;12.85;;;;;;;9.06;65.74;100398.56;5051443;28;20450;-48
2022/03/30 11:17:06;;;;;;;21.50;12.93;;;;;;;9.06;66.39;100384.19;5056526;28;20462;-49
2022/03/30 11:19:55;;;;;;;20.23;12.93;;;;;;;9.07;66.41;100383.91;5054750;28;20053;-48
2022/03/30 11:22:22;;;;;;;17.30;11.75;;;;;;;9.00;66.29;100388.00;5036781;28;20099;-49
2022/03/30 11:25:13;;;;;;;20.50;12.13;;;;;;;9.07;65.96;100377.69;5036955;28;20057;-51
2022/03/30 11:27:41;;;;;;;23.50;13.32;;;;;;;9.09;65.42;100380.91;5036480;28;20076;-48
2022/03/30 11:30:19;;;;;;;21.25;13.02;;;;;;;9.05;65.64;100368.97;5037883;28;20048;-50
2022/03/30 11:32:54;;;;;;;22.02;11.90;;;;;;;9.02;65.93;100374.91;5036437;28;20045;-47
2022/03/30 11:35:28;;;;;;;20.45;13.00;;;;;;;9.13;65.87;100371.16;5036414;28;20053;-45
2022/03/30 11:38:05;;;;;;;26.77;12.52;;;;;;;9.24;66.04;100366.56;5066944;28;20037;-48